Aviation Digital Data Service (ADDS)

Output produced by METARs form (2037 UTC 22 May 2015)
found at http://aviationweather.gov/adds/metars/
 
KCRG 221720Z 2218/2318 03012KT P6SM SCT040 SCT100 BKN200 
     FM230100 03008KT P6SM SCT030 SCT100 BKN200 
     FM231400 06014G21KT P6SM SCT020 BKN040